createdAt,value
2017-10-03T00:00:48.372Z,0
2017-10-03T00:01:49.083Z,0
2017-10-03T00:02:49.794Z,0
2017-10-03T00:03:50.519Z,0
2017-10-03T00:04:51.230Z,0
2017-10-03T00:05:51.940Z,0
2017-10-03T00:06:52.655Z,0
2017-10-03T00:07:53.363Z,0
2017-10-03T00:08:54.074Z,0
2017-10-03T00:09:54.784Z,0
2017-10-03T00:10:55.510Z,0
2017-10-03T00:11:56.221Z,0
2017-10-03T00:12:56.933Z,0
2017-10-03T00:13:57.641Z,0
2017-10-03T00:14:58.353Z,0
2017-10-03T00:15:59.064Z,0
2017-10-03T00:16:59.772Z,0
2017-10-03T00:18:00.482Z,0
2017-10-03T00:19:01.206Z,0
2017-10-03T00:20:01.917Z,0
2017-10-03T00:21:02.643Z,0
2017-10-03T00:22:03.357Z,0
2017-10-03T00:23:04.081Z,0
2017-10-03T00:24:04.793Z,0
2017-10-03T00:25:05.504Z,0
2017-10-03T00:26:06.231Z,0
2017-10-03T00:27:06.945Z,0
2017-10-03T00:28:07.661Z,0
2017-10-03T00:29:08.382Z,0
2017-10-03T00:30:09.094Z,0
2017-10-03T00:31:09.808Z,0
2017-10-03T00:32:10.519Z,0
2017-10-03T00:33:11.229Z,0
2017-10-03T00:34:11.939Z,0
2017-10-03T00:35:12.667Z,0
2017-10-03T00:36:13.378Z,0
2017-10-03T00:37:14.104Z,0
2017-10-03T00:38:14.817Z,0
2017-10-03T00:39:15.532Z,0
2017-10-03T00:40:16.239Z,0
2017-10-03T00:41:16.950Z,0
2017-10-03T00:42:17.661Z,0
2017-10-03T00:43:18.371Z,0
2017-10-03T00:44:19.088Z,0
2017-10-03T00:45:19.810Z,0
2017-10-03T00:46:20.536Z,0
2017-10-03T00:47:21.250Z,0
2017-10-03T00:48:21.976Z,0
2017-10-03T00:49:22.690Z,0
2017-10-03T00:50:23.400Z,0
2017-10-03T00:51:24.124Z,0
2017-10-03T00:52:24.836Z,0
2017-10-03T00:53:25.563Z,0
2017-10-03T00:54:26.291Z,0
2017-10-03T00:55:26.999Z,0
2017-10-03T00:56:27.710Z,0
2017-10-03T00:57:28.433Z,0
2017-10-03T00:58:29.145Z,0
2017-10-03T00:59:29.860Z,0
2017-10-03T01:00:30.567Z,0
2017-10-03T01:01:31.278Z,0
2017-10-03T01:02:31.988Z,0
2017-10-03T01:03:32.701Z,0
2017-10-03T01:04:33.412Z,0
2017-10-03T01:05:34.138Z,0
2017-10-03T01:06:34.850Z,0
2017-10-03T01:07:35.577Z,0
2017-10-03T01:08:36.287Z,0
2017-10-03T01:09:36.997Z,0
2017-10-03T01:10:37.709Z,0
2017-10-03T01:11:38.434Z,0
2017-10-03T01:12:39.145Z,0
2017-10-03T01:13:39.870Z,0
2017-10-03T01:14:40.580Z,0
2017-10-03T01:15:41.291Z,0
2017-10-03T01:16:42.000Z,0
2017-10-03T01:17:42.728Z,0
2017-10-03T01:18:43.440Z,0
2017-10-03T01:19:44.151Z,0
2017-10-03T01:20:44.862Z,0
2017-10-03T01:21:45.573Z,0
2017-10-03T01:22:46.283Z,0
2017-10-03T01:23:46.992Z,0
2017-10-03T01:24:47.704Z,0
2017-10-03T01:25:48.416Z,0
2017-10-03T01:26:49.140Z,0
2017-10-03T01:27:49.853Z,0
2017-10-03T01:28:50.564Z,0
2017-10-03T01:29:51.276Z,0
2017-10-03T01:30:51.986Z,0
2017-10-03T01:31:52.697Z,0
2017-10-03T01:32:53.411Z,0
2017-10-03T01:33:54.122Z,0
2017-10-03T01:34:54.835Z,0
2017-10-03T01:35:55.548Z,0
2017-10-03T01:36:56.260Z,0
2017-10-03T01:37:56.971Z,0
2017-10-03T01:38:57.681Z,0
2017-10-03T01:39:58.392Z,0
2017-10-03T01:40:59.104Z,0
2017-10-03T01:41:59.827Z,0
2017-10-03T01:43:00.556Z,0
2017-10-03T01:44:01.268Z,0
2017-10-03T01:45:01.980Z,0
2017-10-03T01:46:02.690Z,0
2017-10-03T01:47:03.401Z,0
2017-10-03T01:48:04.131Z,0
2017-10-03T01:49:04.837Z,0
2017-10-03T01:50:05.565Z,0
2017-10-03T01:51:06.277Z,0
2017-10-03T01:52:06.990Z,0
2017-10-03T01:53:07.701Z,0
2017-10-03T01:54:08.411Z,0
2017-10-03T01:55:09.122Z,0
2017-10-03T01:56:09.846Z,0
2017-10-03T01:57:10.572Z,0
2017-10-03T01:58:11.287Z,0
2017-10-03T01:59:11.999Z,0
2017-10-03T02:00:12.724Z,0
2017-10-03T02:01:13.435Z,0
2017-10-03T02:02:14.146Z,0
2017-10-03T02:03:14.858Z,0
2017-10-03T02:04:15.570Z,0
2017-10-03T02:05:16.279Z,0
2017-10-03T02:06:16.991Z,0
2017-10-03T02:07:17.718Z,0
2017-10-03T02:08:18.444Z,0
2017-10-03T02:09:19.158Z,0
2017-10-03T02:10:19.867Z,0
2017-10-03T02:11:20.580Z,0
2017-10-03T02:12:21.294Z,0
2017-10-03T02:13:22.002Z,0
2017-10-03T02:14:22.714Z,0
2017-10-03T02:15:23.425Z,0
2017-10-03T02:16:24.137Z,0
2017-10-03T02:17:24.848Z,0
2017-10-03T02:18:25.574Z,0
2017-10-03T02:19:26.298Z,0
2017-10-03T02:20:27.009Z,0
2017-10-03T02:21:27.734Z,0
2017-10-03T02:22:28.447Z,0
2017-10-03T02:23:29.160Z,0
2017-10-03T02:24:29.875Z,0
2017-10-03T02:25:30.585Z,0
2017-10-03T02:26:31.296Z,0
2017-10-03T02:27:32.007Z,0
2017-10-03T02:28:32.718Z,0
2017-10-03T02:29:33.430Z,0
2017-10-03T02:30:34.143Z,0
2017-10-03T02:31:34.856Z,0
2017-10-03T02:32:35.568Z,0
2017-10-03T02:33:36.281Z,0
2017-10-03T02:34:37.009Z,0
2017-10-03T02:35:37.722Z,0
2017-10-03T02:36:38.433Z,0
2017-10-03T02:37:39.145Z,0
2017-10-03T02:38:39.856Z,0
2017-10-03T02:39:40.570Z,0
2017-10-03T02:40:41.284Z,0
2017-10-03T02:41:42.010Z,0
2017-10-03T02:42:42.723Z,0
2017-10-03T02:43:43.436Z,0
2017-10-03T02:44:44.147Z,0
2017-10-03T02:45:44.861Z,0
2017-10-03T02:46:45.589Z,0
2017-10-03T02:47:46.294Z,0
2017-10-03T02:48:47.006Z,0
2017-10-03T02:49:47.719Z,0
2017-10-03T02:50:48.433Z,0
2017-10-03T02:51:49.143Z,0
2017-10-03T02:52:49.860Z,0
2017-10-03T02:53:50.585Z,0
2017-10-03T02:54:51.297Z,0
2017-10-03T02:55:52.011Z,0
2017-10-03T02:56:52.737Z,0
2017-10-03T02:57:53.451Z,0
2017-10-03T02:58:54.162Z,0
2017-10-03T02:59:54.886Z,0
2017-10-03T03:00:55.598Z,0
2017-10-03T03:01:56.311Z,0
2017-10-03T03:02:57.022Z,0
2017-10-03T03:03:57.741Z,0
2017-10-03T03:04:58.464Z,0
2017-10-03T03:05:59.175Z,0
2017-10-03T03:06:59.901Z,0
2017-10-03T03:08:00.611Z,0
2017-10-03T03:09:01.321Z,0
2017-10-03T03:10:02.046Z,0
2017-10-03T03:11:02.757Z,0
2017-10-03T03:12:03.482Z,0
2017-10-03T03:13:04.197Z,0
2017-10-03T03:14:04.920Z,0
2017-10-03T03:15:05.634Z,0
2017-10-03T03:16:06.359Z,0
2017-10-03T03:17:07.073Z,0
2017-10-03T03:18:07.784Z,0
2017-10-03T03:19:08.497Z,0
2017-10-03T03:20:09.211Z,0
2017-10-03T03:21:09.938Z,0
2017-10-03T03:22:10.666Z,0
2017-10-03T03:23:11.378Z,0
2017-10-03T03:24:12.089Z,0
2017-10-03T03:25:12.803Z,0
2017-10-03T03:26:13.512Z,0
2017-10-03T03:27:14.239Z,0
2017-10-03T03:28:14.951Z,0
2017-10-03T03:29:15.663Z,0
2017-10-03T03:30:16.376Z,0
2017-10-03T03:31:17.098Z,0
2017-10-03T03:32:17.808Z,0
2017-10-03T03:33:18.521Z,0
2017-10-03T03:34:19.237Z,0
2017-10-03T03:35:19.959Z,0
2017-10-03T03:36:20.669Z,0
2017-10-03T03:37:21.392Z,0
2017-10-03T03:38:22.121Z,0
2017-10-03T03:39:22.833Z,0
2017-10-03T03:40:23.544Z,0
2017-10-03T03:41:24.256Z,0
2017-10-03T03:42:24.969Z,0
2017-10-03T03:43:25.692Z,0
2017-10-03T03:44:26.402Z,0
2017-10-03T03:45:27.112Z,0
2017-10-03T03:46:27.823Z,0
2017-10-03T03:47:28.546Z,0
2017-10-03T03:48:29.257Z,0
2017-10-03T03:49:29.970Z,0
2017-10-03T03:50:30.681Z,0
2017-10-03T03:51:31.392Z,0
2017-10-03T03:52:32.120Z,0
2017-10-03T03:53:32.827Z,0
2017-10-03T03:54:33.539Z,0
2017-10-03T03:55:34.252Z,0
2017-10-03T03:56:34.959Z,0
2017-10-03T03:57:35.672Z,0
2017-10-03T03:58:36.378Z,0
2017-10-03T03:59:37.103Z,0
2017-10-03T04:00:37.828Z,0
2017-10-03T04:01:38.551Z,0
2017-10-03T04:02:39.263Z,0
2017-10-03T04:03:39.973Z,0
2017-10-03T04:04:40.699Z,0
2017-10-03T04:05:41.408Z,0
2017-10-03T04:06:42.119Z,0
2017-10-03T04:07:42.844Z,0
2017-10-03T04:08:43.554Z,0
2017-10-03T04:09:44.264Z,0
2017-10-03T04:10:44.976Z,0
2017-10-03T04:11:45.687Z,0
2017-10-03T04:12:46.398Z,0
2017-10-03T04:13:47.107Z,0
2017-10-03T04:14:47.844Z,0
2017-10-03T04:15:48.543Z,0
2017-10-03T04:16:49.265Z,0
2017-10-03T04:17:49.976Z,0
2017-10-03T04:18:50.686Z,0
2017-10-03T04:19:51.411Z,0
2017-10-03T04:20:52.123Z,0
2017-10-03T04:21:52.835Z,0
2017-10-03T04:22:53.546Z,0
2017-10-03T04:23:54.257Z,0
2017-10-03T04:24:54.978Z,0
2017-10-03T04:25:55.691Z,0
2017-10-03T04:26:56.414Z,0
2017-10-03T04:27:57.124Z,0
2017-10-03T04:28:57.837Z,0
2017-10-03T04:29:58.555Z,0
2017-10-03T04:30:59.263Z,0
2017-10-03T04:31:59.985Z,0
2017-10-03T04:33:00.697Z,0
2017-10-03T04:34:01.406Z,0
2017-10-03T04:35:02.120Z,0
2017-10-03T04:36:02.830Z,0
2017-10-03T04:37:03.540Z,0
2017-10-03T04:38:04.249Z,0
2017-10-03T04:39:04.958Z,0
2017-10-03T04:40:05.669Z,0
2017-10-03T04:41:06.380Z,0
2017-10-03T04:42:07.092Z,0
2017-10-03T04:43:07.802Z,0
2017-10-03T04:44:08.513Z,0
2017-10-03T04:45:09.225Z,0
2017-10-03T04:46:09.936Z,0
2017-10-03T04:47:10.648Z,0
2017-10-03T04:48:11.362Z,0
2017-10-03T04:49:12.074Z,0
2017-10-03T04:50:12.793Z,0
2017-10-03T04:51:13.509Z,0
2017-10-03T04:52:14.226Z,0
2017-10-03T04:53:14.951Z,0
2017-10-03T04:54:15.661Z,0
2017-10-03T04:55:16.373Z,0
2017-10-03T04:56:17.096Z,0
2017-10-03T04:57:17.808Z,0
2017-10-03T04:58:18.521Z,0
2017-10-03T04:59:19.231Z,0
2017-10-03T05:00:19.944Z,0
2017-10-03T05:01:20.653Z,0
2017-10-03T05:02:21.364Z,0
2017-10-03T05:03:22.088Z,0
2017-10-03T05:04:22.801Z,0
2017-10-03T05:05:23.511Z,0
2017-10-03T05:06:24.223Z,0
2017-10-03T05:07:24.934Z,4
2017-10-03T05:08:25.656Z,4
2017-10-03T05:09:26.379Z,0
2017-10-03T05:10:27.091Z,4
2017-10-03T05:11:27.802Z,4
2017-10-03T05:12:28.515Z,8
2017-10-03T05:13:29.230Z,8
2017-10-03T05:14:29.950Z,8
2017-10-03T05:15:30.661Z,8
2017-10-03T05:16:31.371Z,12
2017-10-03T05:17:32.095Z,8
2017-10-03T05:18:32.806Z,8
2017-10-03T05:19:33.520Z,12
2017-10-03T05:20:34.244Z,16
2017-10-03T05:21:34.955Z,20
2017-10-03T05:22:35.667Z,20
2017-10-03T05:23:36.378Z,20
2017-10-03T05:24:37.090Z,24
2017-10-03T05:25:37.801Z,20
2017-10-03T05:26:38.529Z,24
2017-10-03T05:27:39.240Z,28
2017-10-03T05:28:39.953Z,32
2017-10-03T05:29:40.676Z,48
2017-10-03T05:30:41.388Z,56
2017-10-03T05:31:42.113Z,56
2017-10-03T05:32:42.828Z,72
2017-10-03T05:33:43.542Z,84
2017-10-03T05:34:44.266Z,100
2017-10-03T05:35:44.978Z,108
2017-10-03T05:36:45.691Z,116
2017-10-03T05:37:46.403Z,128
2017-10-03T05:38:47.115Z,144
2017-10-03T05:39:48.129Z,164
2017-10-03T05:40:48.859Z,188
2017-10-03T05:41:49.571Z,204
2017-10-03T05:42:50.286Z,216
2017-10-03T05:43:51.000Z,236
2017-10-03T05:44:51.726Z,264
2017-10-03T05:45:52.442Z,296
2017-10-03T05:46:53.167Z,328
2017-10-03T05:47:53.882Z,356
2017-10-03T05:48:54.596Z,388
2017-10-03T05:49:55.310Z,412
2017-10-03T05:50:56.026Z,432
2017-10-03T05:51:56.753Z,468
2017-10-03T05:52:57.467Z,500
2017-10-03T05:53:58.180Z,524
2017-10-03T05:54:58.894Z,536
2017-10-03T05:55:59.606Z,524
2017-10-03T05:57:00.318Z,496
2017-10-03T05:58:01.047Z,472
2017-10-03T05:59:01.759Z,476
2017-10-03T06:00:02.473Z,496
2017-10-03T06:01:03.185Z,496
2017-10-03T06:02:03.901Z,488
2017-10-03T06:03:04.614Z,512
2017-10-03T06:04:05.342Z,552
2017-10-03T06:05:06.056Z,616
2017-10-03T06:06:06.782Z,704
2017-10-03T06:07:07.494Z,832
2017-10-03T06:08:08.208Z,980
2017-10-03T06:09:08.924Z,1092
2017-10-03T06:10:09.640Z,1208
2017-10-03T06:11:10.356Z,1292
2017-10-03T06:12:11.070Z,1372
2017-10-03T06:13:11.788Z,1440
2017-10-03T06:14:12.510Z,1468
2017-10-03T06:15:13.218Z,1472
2017-10-03T06:16:13.949Z,1480
2017-10-03T06:17:14.673Z,1524
2017-10-03T06:18:15.388Z,1580
2017-10-03T06:19:16.103Z,1652
2017-10-03T06:20:16.821Z,1756
2017-10-03T06:21:17.536Z,1864
2017-10-03T06:22:18.252Z,2020
2017-10-03T06:23:18.969Z,2452
2017-10-03T06:24:19.683Z,2580
2017-10-03T06:25:20.398Z,2696
2017-10-03T06:26:21.118Z,2776
2017-10-03T06:27:21.845Z,2828
2017-10-03T06:28:22.560Z,2656
2017-10-03T06:29:23.291Z,2736
2017-10-03T06:30:24.010Z,3364
2017-10-03T06:31:24.727Z,3524
2017-10-03T06:32:25.444Z,4092
2017-10-03T06:33:26.162Z,4448
2017-10-03T06:34:26.879Z,4616
2017-10-03T06:35:27.609Z,4652
2017-10-03T06:36:28.336Z,4360
2017-10-03T06:37:29.053Z,4084
2017-10-03T06:38:29.771Z,3372
2017-10-03T06:39:30.503Z,3776
2017-10-03T06:40:31.220Z,4636
2017-10-03T06:41:31.935Z,5660
2017-10-03T06:42:32.667Z,6200
2017-10-03T06:43:33.385Z,6444
2017-10-03T06:44:34.104Z,6900
2017-10-03T06:45:34.822Z,7444
2017-10-03T06:46:35.542Z,7700
2017-10-03T06:47:36.262Z,7936
2017-10-03T06:48:36.981Z,8236
2017-10-03T06:49:37.710Z,8740
2017-10-03T06:50:38.427Z,9052
2017-10-03T06:51:39.143Z,9336
2017-10-03T06:52:39.873Z,9432
2017-10-03T06:53:40.592Z,9596
2017-10-03T06:54:41.322Z,9420
2017-10-03T06:55:42.043Z,9880
2017-10-03T06:56:42.763Z,9824
2017-10-03T06:57:43.494Z,9940
2017-10-03T06:58:44.214Z,10632
2017-10-03T06:59:44.933Z,11400
2017-10-03T07:00:45.655Z,11764
2017-10-03T07:01:46.375Z,12312
2017-10-03T07:02:47.093Z,13524
2017-10-03T07:03:47.817Z,13772
2017-10-03T07:04:48.535Z,13160
2017-10-03T07:05:49.270Z,9944
2017-10-03T07:06:49.992Z,9836
2017-10-03T07:07:50.713Z,15296
2017-10-03T07:08:51.437Z,13624
2017-10-03T07:09:52.166Z,8632
2017-10-03T07:10:52.899Z,5348
2017-10-03T07:11:53.634Z,4760
2017-10-03T07:12:54.353Z,4356
2017-10-03T07:13:55.070Z,6692
2017-10-03T07:14:55.800Z,7568
2017-10-03T07:15:56.519Z,4628
2017-10-03T07:16:57.240Z,3708
2017-10-03T07:17:57.959Z,4412
2017-10-03T07:18:58.678Z,4244
2017-10-03T07:19:59.396Z,5908
2017-10-03T07:21:00.117Z,13032
2017-10-03T07:22:00.835Z,14508
2017-10-03T07:23:01.569Z,17088
2017-10-03T07:24:02.289Z,17472
2017-10-03T07:25:03.011Z,13628
2017-10-03T07:26:03.747Z,10504
2017-10-03T07:27:04.479Z,22176
2017-10-03T07:28:05.213Z,11592
2017-10-03T07:29:05.948Z,17856
2017-10-03T07:30:06.670Z,13300
2017-10-03T07:31:07.389Z,6292
2017-10-03T07:32:08.111Z,6204
2017-10-03T07:33:08.832Z,6744
2017-10-03T07:34:09.562Z,7736
2017-10-03T07:35:10.279Z,10356
2017-10-03T07:36:11.000Z,16896
2017-10-03T07:37:11.735Z,13520
2017-10-03T07:38:12.458Z,15488
2017-10-03T07:39:13.176Z,9812
2017-10-03T07:40:13.910Z,9448
2017-10-03T07:41:14.628Z,6156
2017-10-03T07:42:15.349Z,5448
2017-10-03T07:43:16.069Z,5520
2017-10-03T07:44:16.787Z,5732
2017-10-03T07:45:17.511Z,5372
2017-10-03T07:46:18.229Z,4200
2017-10-03T07:47:18.948Z,4296
2017-10-03T07:48:19.667Z,3704
2017-10-03T07:49:20.385Z,3552
2017-10-03T07:50:21.104Z,3920
2017-10-03T07:51:21.822Z,4184
2017-10-03T07:52:22.540Z,5296
2017-10-03T07:53:23.259Z,5912
2017-10-03T07:54:23.978Z,5396
2017-10-03T07:55:24.710Z,6020
2017-10-03T07:56:25.427Z,6472
2017-10-03T07:57:26.159Z,5484
2017-10-03T07:58:26.889Z,4164
2017-10-03T07:59:27.605Z,3668
2017-10-03T08:00:28.324Z,4668
2017-10-03T08:01:29.048Z,4408
2017-10-03T08:02:29.764Z,3600
2017-10-03T08:03:30.481Z,4232
2017-10-03T08:04:31.197Z,3308
2017-10-03T08:05:31.916Z,2680
2017-10-03T08:06:32.646Z,2640
2017-10-03T08:07:33.376Z,3128
2017-10-03T08:08:34.095Z,4432
2017-10-03T08:09:34.816Z,5268
2017-10-03T08:10:35.535Z,5392
2017-10-03T08:11:36.265Z,5704
2017-10-03T08:12:36.994Z,5852
2017-10-03T08:13:37.711Z,5744
2017-10-03T08:14:38.430Z,5284
2017-10-03T08:15:39.146Z,4128
2017-10-03T08:16:39.864Z,4056
2017-10-03T08:17:40.583Z,4220
2017-10-03T08:18:41.313Z,4876
2017-10-03T08:19:42.031Z,4744
2017-10-03T08:20:42.747Z,5216
2017-10-03T08:21:43.463Z,6168
2017-10-03T08:22:44.181Z,7232
2017-10-03T08:23:44.897Z,8212
2017-10-03T08:24:45.615Z,8696
2017-10-03T08:25:46.335Z,9092
2017-10-03T08:26:47.057Z,8504
2017-10-03T08:27:47.770Z,8976
2017-10-03T08:28:48.488Z,9052
2017-10-03T08:29:49.219Z,7952
2017-10-03T08:30:49.938Z,8024
2017-10-03T08:31:50.656Z,8776
2017-10-03T08:32:51.374Z,7384
2017-10-03T08:33:52.093Z,5824
2017-10-03T08:34:52.810Z,5572
2017-10-03T08:35:53.542Z,6880
2017-10-03T08:36:54.275Z,5056
2017-10-03T08:37:55.004Z,5240
2017-10-03T08:38:55.736Z,5248
2017-10-03T08:39:56.465Z,7304
2017-10-03T08:40:57.195Z,8528
2017-10-03T08:41:57.913Z,9600
2017-10-03T08:42:58.631Z,9020
2017-10-03T08:43:59.351Z,10852
2017-10-03T08:45:00.082Z,22112
2017-10-03T08:46:00.804Z,48672
2017-10-03T08:47:01.524Z,29792
2017-10-03T08:48:02.246Z,47968
2017-10-03T08:49:02.970Z,52032
2017-10-03T08:50:03.707Z,41152
2017-10-03T08:51:04.430Z,45664
2017-10-03T08:52:05.154Z,42720
2017-10-03T08:53:05.876Z,30944
2017-10-03T08:54:06.602Z,30400
2017-10-03T08:55:07.327Z,20992
2017-10-03T08:56:08.050Z,22560
2017-10-03T08:57:08.774Z,20416
2017-10-03T08:58:09.498Z,17568
2017-10-03T08:59:10.220Z,17216
2017-10-03T09:00:10.942Z,10804
2017-10-03T09:01:11.666Z,9584
2017-10-03T09:02:12.388Z,10132
2017-10-03T09:03:13.109Z,10892
2017-10-03T09:04:13.830Z,9512
2017-10-03T09:05:14.555Z,6404
2017-10-03T09:06:15.287Z,4624
2017-10-03T09:07:16.009Z,5412
2017-10-03T09:08:16.727Z,6876
2017-10-03T09:09:17.458Z,8364
2017-10-03T09:10:18.178Z,8484
2017-10-03T09:11:18.897Z,6556
2017-10-03T09:12:19.616Z,7680
2017-10-03T09:13:20.338Z,8188
2017-10-03T09:14:21.058Z,8616
2017-10-03T09:15:21.780Z,8736
2017-10-03T09:16:22.514Z,8912
2017-10-03T09:17:23.235Z,11696
2017-10-03T09:18:23.959Z,30528
2017-10-03T09:19:24.682Z,41536
2017-10-03T09:20:25.404Z,22240
2017-10-03T09:21:26.125Z,39936
2017-10-03T09:22:26.912Z,51744
2017-10-03T09:23:27.575Z,53984
2017-10-03T09:24:28.297Z,20576
2017-10-03T09:25:29.024Z,16060
2017-10-03T09:26:29.742Z,21728
2017-10-03T09:27:30.469Z,22400
2017-10-03T09:28:31.204Z,56192
2017-10-03T09:29:31.932Z,55392
2017-10-03T09:30:32.659Z,13444
2017-10-03T09:31:33.384Z,15496
2017-10-03T09:32:34.110Z,42368
2017-10-03T09:33:34.835Z,16704
2017-10-03T09:34:35.560Z,20960
2017-10-03T09:35:36.297Z,13456
2017-10-03T09:36:37.036Z,14380
2017-10-03T09:37:37.760Z,15344
2017-10-03T09:38:38.489Z,45216
2017-10-03T09:39:39.225Z,18944
2017-10-03T09:40:39.952Z,20288
2017-10-03T09:41:40.676Z,15152
2017-10-03T09:42:41.400Z,27584
2017-10-03T09:43:42.124Z,16576
2017-10-03T09:44:42.863Z,54720
2017-10-03T09:45:43.599Z,19008
2017-10-03T09:46:44.327Z,62400
2017-10-03T09:47:45.054Z,60032
2017-10-03T09:48:45.793Z,12136
2017-10-03T09:49:46.533Z,15484
2017-10-03T09:50:47.260Z,14144
2017-10-03T09:51:48.004Z,59456
2017-10-03T09:52:48.727Z,61568
2017-10-03T09:53:49.455Z,63136
2017-10-03T09:54:50.182Z,15460
2017-10-03T09:55:50.924Z,21408
2017-10-03T09:56:51.652Z,33408
2017-10-03T09:57:52.377Z,9716
2017-10-03T09:58:53.115Z,25248
2017-10-03T09:59:53.859Z,54208
2017-10-03T10:00:54.589Z,57984
2017-10-03T10:01:55.319Z,13744
2017-10-03T10:02:56.063Z,8700
2017-10-03T10:03:56.791Z,61024
2017-10-03T10:04:57.531Z,9904
2017-10-03T10:05:58.263Z,61120
2017-10-03T10:06:58.992Z,59584
2017-10-03T10:07:59.731Z,13020
2017-10-03T10:09:00.453Z,15412
2017-10-03T10:10:01.190Z,65568
2017-10-03T10:11:01.917Z,26144
2017-10-03T10:12:02.651Z,60672
2017-10-03T10:13:03.384Z,59104
2017-10-03T10:14:04.116Z,9036
2017-10-03T10:15:04.846Z,6512
2017-10-03T10:16:05.575Z,5016
2017-10-03T10:17:06.317Z,4212
2017-10-03T10:18:07.043Z,4244
2017-10-03T10:19:07.770Z,4004
2017-10-03T10:20:08.507Z,3908
2017-10-03T10:21:09.246Z,5464
2017-10-03T10:22:09.967Z,8668
2017-10-03T10:23:10.689Z,13320
2017-10-03T10:24:11.411Z,19744
2017-10-03T10:25:12.137Z,20544
2017-10-03T10:26:12.859Z,17216
2017-10-03T10:27:13.594Z,15948
2017-10-03T10:28:14.316Z,16284
2017-10-03T10:29:15.038Z,12464
2017-10-03T10:30:15.763Z,11216
2017-10-03T10:31:16.483Z,12220
2017-10-03T10:32:17.218Z,20160
2017-10-03T10:33:17.933Z,21024
2017-10-03T10:34:18.655Z,32800
2017-10-03T10:35:19.389Z,18272
2017-10-03T10:36:20.124Z,34720
2017-10-03T10:37:20.849Z,67168
2017-10-03T10:38:21.570Z,19552
2017-10-03T10:39:22.292Z,24288
2017-10-03T10:40:23.015Z,16640
2017-10-03T10:41:23.738Z,15036
2017-10-03T10:42:24.462Z,15236
2017-10-03T10:43:25.186Z,16736
2017-10-03T10:44:25.911Z,11352
2017-10-03T10:45:26.634Z,11032
2017-10-03T10:46:27.367Z,8984
2017-10-03T10:47:28.102Z,7944
2017-10-03T10:48:28.825Z,9760
2017-10-03T10:49:29.548Z,36800
2017-10-03T10:50:30.275Z,46720
2017-10-03T10:51:30.997Z,44160
2017-10-03T10:52:31.719Z,11120
2017-10-03T10:53:32.442Z,12212
2017-10-03T10:54:33.167Z,40800
2017-10-03T10:55:33.903Z,58624
2017-10-03T10:56:34.629Z,57664
2017-10-03T10:57:35.357Z,53568
2017-10-03T10:58:36.085Z,61120
2017-10-03T10:59:36.811Z,52256
2017-10-03T11:00:37.537Z,10728
2017-10-03T11:01:38.265Z,13052
2017-10-03T11:02:38.995Z,60416
2017-10-03T11:03:39.724Z,58496
2017-10-03T11:04:40.449Z,7908
2017-10-03T11:05:41.174Z,7344
2017-10-03T11:06:41.911Z,7812
2017-10-03T11:07:42.650Z,7744
2017-10-03T11:08:43.374Z,8576
2017-10-03T11:09:44.108Z,8048
2017-10-03T11:10:44.828Z,9764
2017-10-03T11:11:45.551Z,9840
2017-10-03T11:12:46.280Z,47936
2017-10-03T11:13:47.004Z,62784
2017-10-03T11:14:47.730Z,62592
2017-10-03T11:15:48.456Z,36800
2017-10-03T11:16:49.181Z,66656
2017-10-03T11:17:49.907Z,27968
2017-10-03T11:18:50.633Z,64992
2017-10-03T11:19:51.365Z,50400
2017-10-03T11:20:52.099Z,31712
2017-10-03T11:21:52.825Z,29664
2017-10-03T11:22:53.554Z,9312
2017-10-03T11:23:54.295Z,57120
2017-10-03T11:24:55.040Z,63168
2017-10-03T11:25:55.775Z,23776
2017-10-03T11:26:56.518Z,61536
2017-10-03T11:27:57.238Z,10136
2017-10-03T11:28:57.968Z,8672
2017-10-03T11:29:58.699Z,14740
2017-10-03T11:30:59.432Z,59648
2017-10-03T11:32:00.162Z,59680
2017-10-03T11:33:00.908Z,59712
2017-10-03T11:34:01.640Z,59040
2017-10-03T11:35:02.387Z,59648
2017-10-03T11:36:03.116Z,11936
2017-10-03T11:37:03.849Z,59264
2017-10-03T11:38:04.581Z,59456
2017-10-03T11:39:05.311Z,62688
2017-10-03T11:40:06.043Z,63648
2017-10-03T11:41:06.784Z,17952
2017-10-03T11:42:07.515Z,66592
2017-10-03T11:43:08.245Z,64448
2017-10-03T11:44:08.975Z,62720
2017-10-03T11:45:09.707Z,62272
2017-10-03T11:46:10.440Z,62848
2017-10-03T11:47:11.181Z,34592
2017-10-03T11:48:11.915Z,50720
2017-10-03T11:49:12.643Z,21024
2017-10-03T11:50:13.387Z,64928
2017-10-03T11:51:14.117Z,68288
2017-10-03T11:52:14.847Z,65280
2017-10-03T11:53:15.590Z,65408
2017-10-03T11:54:16.323Z,67424
2017-10-03T11:55:17.054Z,66944
2017-10-03T11:56:17.783Z,15068
2017-10-03T11:57:18.515Z,15428
2017-10-03T11:58:19.245Z,14468
2017-10-03T11:59:19.976Z,63680
2017-10-03T12:00:20.706Z,15288
2017-10-03T12:01:21.446Z,13756
2017-10-03T12:02:22.173Z,14940
2017-10-03T12:03:22.902Z,61408
2017-10-03T12:04:23.631Z,38656
2017-10-03T12:05:24.361Z,14444
2017-10-03T12:06:25.090Z,11724
2017-10-03T12:07:25.821Z,11480
2017-10-03T12:08:26.561Z,8644
2017-10-03T12:09:27.304Z,6544
2017-10-03T12:10:28.033Z,7536
2017-10-03T12:11:28.765Z,9548
2017-10-03T12:12:29.491Z,9356
2017-10-03T12:13:30.220Z,8696
2017-10-03T12:14:30.947Z,10124
2017-10-03T12:15:31.673Z,12000
2017-10-03T12:16:32.411Z,14672
2017-10-03T12:17:33.136Z,21280
2017-10-03T12:18:33.859Z,18016
2017-10-03T12:19:34.582Z,16076
2017-10-03T12:20:35.307Z,26336
2017-10-03T12:21:36.031Z,47936
2017-10-03T12:22:36.758Z,39680
2017-10-03T12:23:37.486Z,20096
2017-10-03T12:24:38.221Z,40480
2017-10-03T12:25:38.948Z,36576
2017-10-03T12:26:39.676Z,53600
2017-10-03T12:27:40.409Z,52224
2017-10-03T12:28:41.137Z,52416
2017-10-03T12:29:41.867Z,52160
2017-10-03T12:30:42.600Z,52608
2017-10-03T12:31:43.331Z,51552
2017-10-03T12:32:44.075Z,51712
2017-10-03T12:33:44.808Z,50976
2017-10-03T12:34:45.540Z,48928
2017-10-03T12:35:46.276Z,49632
2017-10-03T12:36:47.008Z,48512
2017-10-03T12:37:47.742Z,47360
2017-10-03T12:38:48.479Z,46976
2017-10-03T12:39:49.209Z,45568
2017-10-03T12:40:49.940Z,46880
2017-10-03T12:41:50.670Z,48192
2017-10-03T12:42:51.402Z,50400
2017-10-03T12:43:52.134Z,50944
2017-10-03T12:44:52.865Z,52352
2017-10-03T12:45:53.597Z,52960
2017-10-03T12:46:54.328Z,53568
2017-10-03T12:47:55.058Z,27456
2017-10-03T12:48:55.789Z,13100
2017-10-03T12:49:56.525Z,49632
2017-10-03T12:50:57.256Z,51232
2017-10-03T12:51:57.983Z,49088
2017-10-03T12:52:58.712Z,53504
2017-10-03T12:53:59.452Z,55264
2017-10-03T12:55:00.184Z,54144
2017-10-03T12:56:00.917Z,51392
2017-10-03T12:57:01.664Z,17792
2017-10-03T12:58:02.389Z,11112
2017-10-03T12:59:03.133Z,15244
2017-10-03T13:00:03.859Z,28160
2017-10-03T13:01:04.586Z,19136
2017-10-03T13:02:05.316Z,48192
2017-10-03T13:03:06.043Z,23584
2017-10-03T13:04:06.772Z,7524
2017-10-03T13:05:07.498Z,6148
2017-10-03T13:06:08.239Z,4816
2017-10-03T13:07:08.974Z,3648
2017-10-03T13:08:09.701Z,3232
2017-10-03T13:09:10.429Z,2760
2017-10-03T13:10:11.156Z,2412
2017-10-03T13:11:11.883Z,2052
2017-10-03T13:12:12.610Z,1672
2017-10-03T13:13:13.335Z,1448
2017-10-03T13:14:14.072Z,1400
2017-10-03T13:15:14.796Z,1848
2017-10-03T13:16:15.530Z,3744
2017-10-03T13:17:16.253Z,9060
2017-10-03T13:18:16.981Z,11900
2017-10-03T13:19:17.702Z,12360
2017-10-03T13:20:18.427Z,10268
2017-10-03T13:21:19.147Z,8332
2017-10-03T13:22:19.869Z,7068
2017-10-03T13:23:20.591Z,5956
2017-10-03T13:24:21.311Z,5688
2017-10-03T13:25:22.038Z,5768
2017-10-03T13:26:22.770Z,5312
2017-10-03T13:27:23.491Z,5580
2017-10-03T13:28:24.222Z,5616
2017-10-03T13:29:24.942Z,5692
2017-10-03T13:30:25.663Z,5676
2017-10-03T13:31:26.384Z,5708
2017-10-03T13:32:27.119Z,5452
2017-10-03T13:33:27.850Z,5404
2017-10-03T13:34:28.570Z,6844
2017-10-03T13:35:29.291Z,11188
2017-10-03T13:36:30.013Z,41792
2017-10-03T13:37:30.733Z,47392
2017-10-03T13:38:31.456Z,43200
2017-10-03T13:39:32.179Z,11660
2017-10-03T13:40:32.901Z,9228
2017-10-03T13:41:33.637Z,8064
2017-10-03T13:42:34.355Z,8668
2017-10-03T13:43:35.088Z,9528
2017-10-03T13:44:35.825Z,10132
2017-10-03T13:45:36.560Z,10040
2017-10-03T13:46:37.280Z,9656
2017-10-03T13:47:38.000Z,10100
2017-10-03T13:48:38.735Z,10588
2017-10-03T13:49:39.456Z,11172
2017-10-03T13:50:40.188Z,10808
2017-10-03T13:51:40.911Z,12376
2017-10-03T13:52:41.631Z,13152
2017-10-03T13:53:42.355Z,12776